Aspen Hill, Maryland
Current Conditions -  °F | °C
As of 2:15 PM on Monday 22 Dec 2014 (Local Time) from KGAI Reporting Station
Overcast Overcast  
Wind Chill:   Ceiling: 3000
Heat Index:   Visibility: 5mi
Dew Point: -2°   Wind: 3mph
Humidity: 81%   Direction: 30°NNE
Pressure: 30.21"   Gusts: NA
Location:  39.08°N, 77.09°W
Report Text: KGAI 221915Z 03003KT 5SM OVC030 01/M02 A3021 RMK AO1
Loading
Personal Weather Stations






























Interactive Weather Map New forecast layout! Learn more

10-Day Weather Forecast

Advertisements
Track Severe Weather on mobile